Chase Mills, New York
Current Conditions -  °F | °C
As of 11:53 PM on Friday 19 Dec 2014 (Local Time) from KMSS Reporting Station
Clear Clear  
Wind Chill:   Ceiling: Unl
Heat Index:   Visibility: 10mi
Dew Point:   Wind: 5mph
Humidity: 83%   Direction: 220°SW
Pressure: 30.28"   Gusts: NA
Location:  44.85°N, 75.08°W
Report Text: KMSS 200453Z AUTO 22004KT 10SM CLR M13/M16 A3028 RMK AO2 SLP262 I1000 T11331156 410331139
Loading
Personal Weather Stations






























Interactive Weather Map New forecast layout! Learn more

10-Day Weather Forecast

Advertisements
Track Severe Weather on mobile